sensor_id;sensor_type;location;lat;lon;timestamp;P1;durP1;ratioP1;P2;durP2;ratioP2
26488;SDS011;14169;43.684;10.484;2023-02-15T00:00:52;47.03;;;35.03;;
26488;SDS011;14169;43.684;10.484;2023-02-15T00:03:20;47.70;;;34.20;;
26488;SDS011;14169;43.684;10.484;2023-02-15T00:05:46;46.40;;;34.38;;
26488;SDS011;14169;43.684;10.484;2023-02-15T00:08:11;56.05;;;34.45;;
26488;SDS011;14169;43.684;10.484;2023-02-15T00:10:37;67.10;;;36.33;;
26488;SDS011;14169;43.684;10.484;2023-02-15T00:13:02;59.97;;;35.80;;
26488;SDS011;14169;43.684;10.484;2023-02-15T00:15:27;62.42;;;36.85;;
26488;SDS011;14169;43.684;10.484;2023-02-15T00:17:53;60.70;;;37.20;;
26488;SDS011;14169;43.684;10.484;2023-02-15T00:20:18;66.90;;;38.22;;
26488;SDS011;14169;43.684;10.484;2023-02-15T00:22:44;80.82;;;37.40;;
26488;SDS011;14169;43.684;10.484;2023-02-15T00:25:09;72.07;;;36.40;;
26488;SDS011;14169;43.684;10.484;2023-02-15T00:27:35;68.10;;;37.97;;
26488;SDS011;14169;43.684;10.484;2023-02-15T00:30:00;76.47;;;38.15;;
26488;SDS011;14169;43.684;10.484;2023-02-15T00:32:26;59.22;;;37.90;;
26488;SDS011;14169;43.684;10.484;2023-02-15T00:34:51;86.07;;;38.40;;
26488;SDS011;14169;43.684;10.484;2023-02-15T00:37:16;77.70;;;39.45;;
26488;SDS011;14169;43.684;10.484;2023-02-15T00:39:42;75.45;;;41.60;;
26488;SDS011;14169;43.684;10.484;2023-02-15T00:42:07;92.93;;;43.53;;
26488;SDS011;14169;43.684;10.484;2023-02-15T00:44:33;67.40;;;39.70;;
26488;SDS011;14169;43.684;10.484;2023-02-15T00:46:58;105.32;;;41.60;;
26488;SDS011;14169;43.684;10.484;2023-02-15T00:49:23;82.55;;;42.28;;
26488;SDS011;14169;43.684;10.484;2023-02-15T00:51:49;95.35;;;44.85;;
26488;SDS011;14169;43.684;10.484;2023-02-15T00:54:14;89.30;;;45.75;;
26488;SDS011;14169;43.684;10.484;2023-02-15T00:56:40;84.05;;;46.00;;
26488;SDS011;14169;43.684;10.484;2023-02-15T00:59:05;83.55;;;45.58;;
26488;SDS011;14169;43.684;10.484;2023-02-15T01:01:31;82.13;;;45.92;;
26488;SDS011;14169;43.684;10.484;2023-02-15T01:03:57;77.78;;;46.65;;
26488;SDS011;14169;43.684;10.484;2023-02-15T01:06:22;89.93;;;47.35;;
26488;SDS011;14169;43.684;10.484;2023-02-15T01:08:50;93.50;;;46.80;;
26488;SDS011;14169;43.684;10.484;2023-02-15T01:11:17;84.47;;;46.70;;
26488;SDS011;14169;43.684;10.484;2023-02-15T01:13:47;93.38;;;45.70;;
26488;SDS011;14169;43.684;10.484;2023-02-15T01:16:13;78.30;;;44.63;;
26488;SDS011;14169;43.684;10.484;2023-02-15T01:18:38;81.13;;;44.60;;
26488;SDS011;14169;43.684;10.484;2023-02-15T01:21:11;74.85;;;42.80;;
26488;SDS011;14169;43.684;10.484;2023-02-15T01:23:39;106.90;;;42.40;;
26488;SDS011;14169;43.684;10.484;2023-02-15T01:26:04;91.97;;;43.47;;
26488;SDS011;14169;43.684;10.484;2023-02-15T01:28:30;91.85;;;45.05;;
26488;SDS011;14169;43.684;10.484;2023-02-15T01:30:56;106.07;;;42.80;;
26488;SDS011;14169;43.684;10.484;2023-02-15T01:33:21;72.88;;;42.50;;
26488;SDS011;14169;43.684;10.484;2023-02-15T01:35:47;97.38;;;42.70;;
26488;SDS011;14169;43.684;10.484;2023-02-15T01:38:13;123.97;;;43.25;;
26488;SDS011;14169;43.684;10.484;2023-02-15T01:40:39;121.05;;;40.15;;
26488;SDS011;14169;43.684;10.484;2023-02-15T01:43:11;126.00;;;42.30;;
26488;SDS011;14169;43.684;10.484;2023-02-15T01:45:37;130.23;;;43.05;;
26488;SDS011;14169;43.684;10.484;2023-02-15T01:48:05;135.98;;;41.88;;
26488;SDS011;14169;43.684;10.484;2023-02-15T01:50:40;108.75;;;41.78;;
26488;SDS011;14169;43.684;10.484;2023-02-15T01:55:59;154.27;;;42.17;;
26488;SDS011;14169;43.684;10.484;2023-02-15T01:58:46;140.57;;;40.63;;
26488;SDS011;14169;43.684;10.484;2023-02-15T02:01:12;157.50;;;43.13;;
26488;SDS011;14169;43.684;10.484;2023-02-15T02:03:56;120.95;;;41.58;;
26488;SDS011;14169;43.684;10.484;2023-02-15T02:06:29;191.15;;;42.13;;
26488;SDS011;14169;43.684;10.484;2023-02-15T02:08:57;157.00;;;40.85;;
26488;SDS011;14169;43.684;10.484;2023-02-15T02:11:23;114.88;;;38.35;;
26488;SDS011;14169;43.684;10.484;2023-02-15T02:13:48;126.50;;;40.30;;
26488;SDS011;14169;43.684;10.484;2023-02-15T02:35:40;81.07;;;34.92;;
26488;SDS011;14169;43.684;10.484;2023-02-15T02:41:24;93.45;;;36.22;;
26488;SDS011;14169;43.684;10.484;2023-02-15T02:44:16;74.68;;;34.92;;
26488;SDS011;14169;43.684;10.484;2023-02-15T02:46:59;87.60;;;37.22;;
26488;SDS011;14169;43.684;10.484;2023-02-15T02:49:40;78.65;;;37.28;;
26488;SDS011;14169;43.684;10.484;2023-02-15T02:55:05;99.55;;;35.58;;
26488;SDS011;14169;43.684;10.484;2023-02-15T02:57:57;92.10;;;39.35;;
26488;SDS011;14169;43.684;10.484;2023-02-15T03:00:32;85.03;;;37.17;;
26488;SDS011;14169;43.684;10.484;2023-02-15T03:03:06;96.60;;;37.33;;
26488;SDS011;14169;43.684;10.484;2023-02-15T03:05:37;94.78;;;37.40;;
26488;SDS011;14169;43.684;10.484;2023-02-15T03:08:06;119.97;;;37.72;;
26488;SDS011;14169;43.684;10.484;2023-02-15T03:10:34;95.53;;;38.80;;
26488;SDS011;14169;43.684;10.484;2023-02-15T03:13:01;77.78;;;36.25;;
26488;SDS011;14169;43.684;10.484;2023-02-15T03:15:31;106.93;;;38.00;;
26488;SDS011;14169;43.684;10.484;2023-02-15T03:18:22;79.43;;;35.45;;
26488;SDS011;14169;43.684;10.484;2023-02-15T03:20:52;74.30;;;38.53;;
26488;SDS011;14169;43.684;10.484;2023-02-15T03:23:21;70.88;;;37.38;;
26488;SDS011;14169;43.684;10.484;2023-02-15T03:25:52;73.10;;;40.42;;
26488;SDS011;14169;43.684;10.484;2023-02-15T03:28:26;67.30;;;38.80;;
26488;SDS011;14169;43.684;10.484;2023-02-15T03:30:55;71.18;;;40.08;;
26488;SDS011;14169;43.684;10.484;2023-02-15T03:33:25;69.30;;;41.05;;
26488;SDS011;14169;43.684;10.484;2023-02-15T03:35:54;81.10;;;44.42;;
26488;SDS011;14169;43.684;10.484;2023-02-15T03:41:16;85.75;;;47.33;;
26488;SDS011;14169;43.684;10.484;2023-02-15T03:43:55;81.75;;;45.53;;
26488;SDS011;14169;43.684;10.484;2023-02-15T03:46:27;75.47;;;44.58;;
26488;SDS011;14169;43.684;10.484;2023-02-15T03:48:58;77.85;;;46.60;;
26488;SDS011;14169;43.684;10.484;2023-02-15T03:51:29;80.80;;;46.42;;
26488;SDS011;14169;43.684;10.484;2023-02-15T03:54:04;83.03;;;48.47;;
26488;SDS011;14169;43.684;10.484;2023-02-15T03:56:33;79.57;;;49.35;;
26488;SDS011;14169;43.684;10.484;2023-02-15T03:59:00;79.88;;;48.63;;
26488;SDS011;14169;43.684;10.484;2023-02-15T04:04:38;79.93;;;48.97;;
26488;SDS011;14169;43.684;10.484;2023-02-15T04:07:07;77.20;;;48.38;;
26488;SDS011;14169;43.684;10.484;2023-02-15T04:09:33;63.10;;;44.35;;
26488;SDS011;14169;43.684;10.484;2023-02-15T04:12:17;59.60;;;42.17;;
26488;SDS011;14169;43.684;10.484;2023-02-15T04:14:43;60.15;;;40.83;;
26488;SDS011;14169;43.684;10.484;2023-02-15T04:17:26;58.03;;;39.45;;
26488;SDS011;14169;43.684;10.484;2023-02-15T04:19:52;60.50;;;40.40;;
26488;SDS011;14169;43.684;10.484;2023-02-15T04:22:36;49.78;;;36.67;;
26488;SDS011;14169;43.684;10.484;2023-02-15T04:25:20;56.10;;;38.03;;
26488;SDS011;14169;43.684;10.484;2023-02-15T04:27:47;55.15;;;37.13;;
26488;SDS011;14169;43.684;10.484;2023-02-15T04:30:15;60.78;;;37.60;;
26488;SDS011;14169;43.684;10.484;2023-02-15T04:32:43;59.05;;;38.47;;
26488;SDS011;14169;43.684;10.484;2023-02-15T04:35:08;57.10;;;37.38;;
26488;SDS011;14169;43.684;10.484;2023-02-15T04:37:34;61.08;;;36.72;;
26488;SDS011;14169;43.684;10.484;2023-02-15T04:40:00;53.35;;;35.45;;
26488;SDS011;14169;43.684;10.484;2023-02-15T04:42:26;55.83;;;37.90;;
26488;SDS011;14169;43.684;10.484;2023-02-15T04:44:52;60.30;;;38.42;;
26488;SDS011;14169;43.684;10.484;2023-02-15T04:47:18;57.05;;;37.70;;
26488;SDS011;14169;43.684;10.484;2023-02-15T04:49:44;52.88;;;36.30;;
26488;SDS011;14169;43.684;10.484;2023-02-15T04:52:09;52.20;;;36.97;;
26488;SDS011;14169;43.684;10.484;2023-02-15T04:54:35;54.20;;;37.63;;
26488;SDS011;14169;43.684;10.484;2023-02-15T04:57:00;54.50;;;36.92;;
26488;SDS011;14169;43.684;10.484;2023-02-15T04:59:26;56.20;;;37.80;;
26488;SDS011;14169;43.684;10.484;2023-02-15T05:01:52;54.03;;;36.58;;
26488;SDS011;14169;43.684;10.484;2023-02-15T05:04:17;52.95;;;36.33;;
26488;SDS011;14169;43.684;10.484;2023-02-15T05:06:42;59.45;;;38.78;;
26488;SDS011;14169;43.684;10.484;2023-02-15T05:09:08;58.65;;;36.53;;
26488;SDS011;14169;43.684;10.484;2023-02-15T05:11:33;57.83;;;37.40;;
26488;SDS011;14169;43.684;10.484;2023-02-15T05:13:59;60.47;;;39.55;;
26488;SDS011;14169;43.684;10.484;2023-02-15T05:16:24;56.47;;;34.45;;
26488;SDS011;14169;43.684;10.484;2023-02-15T05:18:52;64.10;;;36.22;;
26488;SDS011;14169;43.684;10.484;2023-02-15T05:21:18;72.18;;;36.53;;
26488;SDS011;14169;43.684;10.484;2023-02-15T05:23:43;70.40;;;32.78;;
26488;SDS011;14169;43.684;10.484;2023-02-15T05:26:11;69.57;;;37.00;;
26488;SDS011;14169;43.684;10.484;2023-02-15T05:28:59;74.80;;;37.78;;
26488;SDS011;14169;43.684;10.484;2023-02-15T05:31:24;71.32;;;33.90;;
26488;SDS011;14169;43.684;10.484;2023-02-15T05:33:50;66.43;;;34.47;;
26488;SDS011;14169;43.684;10.484;2023-02-15T05:36:15;63.35;;;35.10;;
26488;SDS011;14169;43.684;10.484;2023-02-15T05:38:41;65.63;;;35.42;;
26488;SDS011;14169;43.684;10.484;2023-02-15T05:41:07;62.85;;;34.97;;
26488;SDS011;14169;43.684;10.484;2023-02-15T05:43:33;63.90;;;34.25;;
26488;SDS011;14169;43.684;10.484;2023-02-15T05:45:59;58.67;;;34.78;;
26488;SDS011;14169;43.684;10.484;2023-02-15T05:48:26;60.65;;;34.25;;
26488;SDS011;14169;43.684;10.484;2023-02-15T05:53:33;58.65;;;34.60;;
26488;SDS011;14169;43.684;10.484;2023-02-15T05:56:00;63.08;;;34.88;;
26488;SDS011;14169;43.684;10.484;2023-02-15T05:58:25;57.20;;;34.55;;
26488;SDS011;14169;43.684;10.484;2023-02-15T06:00:52;62.78;;;35.05;;
26488;SDS011;14169;43.684;10.484;2023-02-15T06:03:17;54.55;;;34.30;;
26488;SDS011;14169;43.684;10.484;2023-02-15T06:05:43;58.10;;;36.63;;
26488;SDS011;14169;43.684;10.484;2023-02-15T06:08:08;53.85;;;35.28;;
26488;SDS011;14169;43.684;10.484;2023-02-15T06:10:34;49.40;;;33.47;;
26488;SDS011;14169;43.684;10.484;2023-02-15T06:13:00;51.28;;;32.42;;
26488;SDS011;14169;43.684;10.484;2023-02-15T06:15:25;51.15;;;32.28;;
26488;SDS011;14169;43.684;10.484;2023-02-15T06:17:51;45.92;;;30.52;;
26488;SDS011;14169;43.684;10.484;2023-02-15T06:20:16;51.10;;;31.52;;
26488;SDS011;14169;43.684;10.484;2023-02-15T06:22:42;45.53;;;30.20;;
26488;SDS011;14169;43.684;10.484;2023-02-15T06:25:07;44.28;;;29.63;;
26488;SDS011;14169;43.684;10.484;2023-02-15T06:27:35;44.53;;;30.10;;
26488;SDS011;14169;43.684;10.484;2023-02-15T06:30:01;48.17;;;29.25;;
26488;SDS011;14169;43.684;10.484;2023-02-15T06:32:26;52.40;;;31.25;;
26488;SDS011;14169;43.684;10.484;2023-02-15T06:34:52;48.30;;;29.52;;
26488;SDS011;14169;43.684;10.484;2023-02-15T06:37:17;51.25;;;30.83;;
26488;SDS011;14169;43.684;10.484;2023-02-15T06:39:42;55.92;;;32.10;;
26488;SDS011;14169;43.684;10.484;2023-02-15T06:42:09;54.10;;;30.83;;
26488;SDS011;14169;43.684;10.484;2023-02-15T06:44:34;55.88;;;31.27;;
26488;SDS011;14169;43.684;10.484;2023-02-15T06:46:59;55.17;;;30.70;;
26488;SDS011;14169;43.684;10.484;2023-02-15T06:49:25;81.55;;;31.83;;
26488;SDS011;14169;43.684;10.484;2023-02-15T06:51:50;58.17;;;31.65;;
26488;SDS011;14169;43.684;10.484;2023-02-15T06:54:16;64.80;;;31.23;;
26488;SDS011;14169;43.684;10.484;2023-02-15T06:56:41;48.90;;;29.90;;
26488;SDS011;14169;43.684;10.484;2023-02-15T06:59:08;49.00;;;29.38;;
26488;SDS011;14169;43.684;10.484;2023-02-15T07:01:34;55.80;;;29.60;;
26488;SDS011;14169;43.684;10.484;2023-02-15T07:03:59;58.15;;;29.40;;
26488;SDS011;14169;43.684;10.484;2023-02-15T07:06:24;53.38;;;29.20;;
26488;SDS011;14169;43.684;10.484;2023-02-15T07:08:50;54.65;;;30.98;;
26488;SDS011;14169;43.684;10.484;2023-02-15T07:11:15;74.55;;;31.33;;
26488;SDS011;14169;43.684;10.484;2023-02-15T07:13:59;57.20;;;31.98;;
26488;SDS011;14169;43.684;10.484;2023-02-15T07:16:25;58.35;;;29.45;;
26488;SDS011;14169;43.684;10.484;2023-02-15T07:18:50;75.78;;;31.88;;
26488;SDS011;14169;43.684;10.484;2023-02-15T07:21:15;62.17;;;30.13;;
26488;SDS011;14169;43.684;10.484;2023-02-15T07:23:41;98.45;;;32.08;;
26488;SDS011;14169;43.684;10.484;2023-02-15T07:26:06;63.25;;;32.78;;
26488;SDS011;14169;43.684;10.484;2023-02-15T07:28:32;109.45;;;34.58;;
26488;SDS011;14169;43.684;10.484;2023-02-15T07:31:00;64.65;;;32.90;;
26488;SDS011;14169;43.684;10.484;2023-02-15T07:33:27;80.47;;;35.30;;
26488;SDS011;14169;43.684;10.484;2023-02-15T07:35:53;68.32;;;33.40;;
26488;SDS011;14169;43.684;10.484;2023-02-15T07:38:20;75.47;;;35.03;;
26488;SDS011;14169;43.684;10.484;2023-02-15T07:40:46;81.95;;;34.83;;
26488;SDS011;14169;43.684;10.484;2023-02-15T07:43:12;68.80;;;34.58;;
26488;SDS011;14169;43.684;10.484;2023-02-15T07:45:38;70.18;;;32.75;;
26488;SDS011;14169;43.684;10.484;2023-02-15T07:48:04;82.50;;;35.03;;
26488;SDS011;14169;43.684;10.484;2023-02-15T07:50:31;60.40;;;31.85;;
26488;SDS011;14169;43.684;10.484;2023-02-15T07:52:57;71.75;;;34.92;;
26488;SDS011;14169;43.684;10.484;2023-02-15T07:55:23;71.72;;;35.40;;
26488;SDS011;14169;43.684;10.484;2023-02-15T07:57:49;66.63;;;36.08;;
26488;SDS011;14169;43.684;10.484;2023-02-15T08:00:16;79.93;;;40.88;;
26488;SDS011;14169;43.684;10.484;2023-02-15T08:02:48;100.85;;;50.17;;
26488;SDS011;14169;43.684;10.484;2023-02-15T08:05:34;166.20;;;81.22;;
26488;SDS011;14169;43.684;10.484;2023-02-15T08:08:00;177.00;;;88.97;;
26488;SDS011;14169;43.684;10.484;2023-02-15T08:10:26;156.68;;;77.43;;
26488;SDS011;14169;43.684;10.484;2023-02-15T08:13:11;137.35;;;66.45;;
26488;SDS011;14169;43.684;10.484;2023-02-15T08:15:36;130.80;;;62.13;;
26488;SDS011;14169;43.684;10.484;2023-02-15T08:18:02;125.75;;;58.83;;
26488;SDS011;14169;43.684;10.484;2023-02-15T08:20:27;85.28;;;43.53;;
26488;SDS011;14169;43.684;10.484;2023-02-15T08:22:53;81.10;;;42.45;;
26488;SDS011;14169;43.684;10.484;2023-02-15T08:25:18;62.20;;;30.75;;
26488;SDS011;14169;43.684;10.484;2023-02-15T08:27:43;35.42;;;20.98;;
26488;SDS011;14169;43.684;10.484;2023-02-15T08:30:09;21.80;;;15.90;;
26488;SDS011;14169;43.684;10.484;2023-02-15T08:32:35;23.40;;;15.50;;
26488;SDS011;14169;43.684;10.484;2023-02-15T08:35:00;28.10;;;15.43;;
26488;SDS011;14169;43.684;10.484;2023-02-15T08:37:26;26.08;;;16.00;;
26488;SDS011;14169;43.684;10.484;2023-02-15T08:39:51;23.33;;;15.65;;
26488;SDS011;14169;43.684;10.484;2023-02-15T08:42:16;21.98;;;14.98;;
26488;SDS011;14169;43.684;10.484;2023-02-15T08:44:42;25.10;;;15.43;;
26488;SDS011;14169;43.684;10.484;2023-02-15T08:47:07;21.92;;;14.27;;
26488;SDS011;14169;43.684;10.484;2023-02-15T08:49:33;24.48;;;15.77;;
26488;SDS011;14169;43.684;10.484;2023-02-15T08:51:58;25.50;;;16.00;;
26488;SDS011;14169;43.684;10.484;2023-02-15T08:54:24;25.05;;;16.38;;
26488;SDS011;14169;43.684;10.484;2023-02-15T08:56:50;26.17;;;17.83;;
26488;SDS011;14169;43.684;10.484;2023-02-15T08:59:16;25.70;;;17.88;;
26488;SDS011;14169;43.684;10.484;2023-02-15T09:01:44;29.52;;;18.75;;
26488;SDS011;14169;43.684;10.484;2023-02-15T09:04:10;34.88;;;23.90;;
26488;SDS011;14169;43.684;10.484;2023-02-15T09:06:36;56.97;;;36.85;;
26488;SDS011;14169;43.684;10.484;2023-02-15T09:09:02;39.80;;;26.05;;
26488;SDS011;14169;43.684;10.484;2023-02-15T09:11:29;34.03;;;20.80;;
26488;SDS011;14169;43.684;10.484;2023-02-15T09:13:57;37.30;;;21.17;;
26488;SDS011;14169;43.684;10.484;2023-02-15T09:16:35;37.92;;;21.98;;
26488;SDS011;14169;43.684;10.484;2023-02-15T09:19:02;36.90;;;21.33;;
26488;SDS011;14169;43.684;10.484;2023-02-15T09:21:29;33.45;;;20.08;;
26488;SDS011;14169;43.684;10.484;2023-02-15T09:23:56;26.55;;;19.63;;
26488;SDS011;14169;43.684;10.484;2023-02-15T09:26:24;26.23;;;19.40;;
26488;SDS011;14169;43.684;10.484;2023-02-15T09:28:52;31.35;;;20.25;;
26488;SDS011;14169;43.684;10.484;2023-02-15T09:31:22;38.38;;;22.75;;
26488;SDS011;14169;43.684;10.484;2023-02-15T09:33:51;37.88;;;22.70;;
26488;SDS011;14169;43.684;10.484;2023-02-15T09:36:24;32.78;;;21.35;;
26488;SDS011;14169;43.684;10.484;2023-02-15T09:38:53;33.22;;;21.92;;
26488;SDS011;14169;43.684;10.484;2023-02-15T09:49:13;39.35;;;23.98;;
26488;SDS011;14169;43.684;10.484;2023-02-15T10:27:54;52.88;;;31.70;;
26488;SDS011;14169;43.684;10.484;2023-02-15T10:30:45;56.22;;;31.77;;
26488;SDS011;14169;43.684;10.484;2023-02-15T10:35:50;62.80;;;34.15;;
26488;SDS011;14169;43.684;10.484;2023-02-15T10:46:40;69.72;;;38.05;;
26488;SDS011;14169;43.684;10.484;2023-02-15T10:49:31;66.25;;;37.83;;
26488;SDS011;14169;43.684;10.484;2023-02-15T10:57:10;59.30;;;35.25;;
26488;SDS011;14169;43.684;10.484;2023-02-15T11:07:47;67.07;;;38.03;;
26488;SDS011;14169;43.684;10.484;2023-02-15T11:13:09;70.18;;;37.10;;
26488;SDS011;14169;43.684;10.484;2023-02-15T11:15:46;70.28;;;38.70;;
26488;SDS011;14169;43.684;10.484;2023-02-15T11:23:35;68.40;;;39.72;;
26488;SDS011;14169;43.684;10.484;2023-02-15T11:26:08;71.13;;;39.47;;
26488;SDS011;14169;43.684;10.484;2023-02-15T11:28:41;63.92;;;39.53;;
26488;SDS011;14169;43.684;10.484;2023-02-15T11:31:16;71.75;;;40.55;;
26488;SDS011;14169;43.684;10.484;2023-02-15T11:33:45;69.72;;;40.05;;
26488;SDS011;14169;43.684;10.484;2023-02-15T11:36:24;70.95;;;41.17;;
26488;SDS011;14169;43.684;10.484;2023-02-15T11:39:02;65.65;;;37.28;;
26488;SDS011;14169;43.684;10.484;2023-02-15T11:41:36;68.88;;;39.30;;
26488;SDS011;14169;43.684;10.484;2023-02-15T11:44:11;67.83;;;40.00;;
26488;SDS011;14169;43.684;10.484;2023-02-15T11:46:41;69.63;;;40.65;;
26488;SDS011;14169;43.684;10.484;2023-02-15T11:49:21;59.53;;;37.28;;
26488;SDS011;14169;43.684;10.484;2023-02-15T11:51:52;60.70;;;38.30;;
26488;SDS011;14169;43.684;10.484;2023-02-15T11:54:19;57.50;;;37.97;;
26488;SDS011;14169;43.684;10.484;2023-02-15T11:56:50;53.55;;;35.42;;
26488;SDS011;14169;43.684;10.484;2023-02-15T11:59:24;51.17;;;34.53;;
26488;SDS011;14169;43.684;10.484;2023-02-15T12:01:54;60.88;;;39.42;;
26488;SDS011;14169;43.684;10.484;2023-02-15T12:04:21;57.03;;;36.15;;
26488;SDS011;14169;43.684;10.484;2023-02-15T12:10:05;54.13;;;34.97;;
26488;SDS011;14169;43.684;10.484;2023-02-15T12:12:42;48.72;;;33.58;;
26488;SDS011;14169;43.684;10.484;2023-02-15T12:15:08;50.22;;;35.15;;
26488;SDS011;14169;43.684;10.484;2023-02-15T12:17:52;46.47;;;34.00;;
26488;SDS011;14169;43.684;10.484;2023-02-15T12:22:46;57.38;;;34.03;;
26488;SDS011;14169;43.684;10.484;2023-02-15T12:25:22;52.83;;;33.72;;
26488;SDS011;14169;43.684;10.484;2023-02-15T12:31:07;46.08;;;34.22;;
26488;SDS011;14169;43.684;10.484;2023-02-15T12:33:42;49.35;;;33.30;;
26488;SDS011;14169;43.684;10.484;2023-02-15T12:36:24;49.20;;;34.95;;
26488;SDS011;14169;43.684;10.484;2023-02-15T12:41:45;50.28;;;33.40;;
26488;SDS011;14169;43.684;10.484;2023-02-15T12:44:35;40.88;;;31.90;;
26488;SDS011;14169;43.684;10.484;2023-02-15T12:47:06;43.97;;;31.30;;
26488;SDS011;14169;43.684;10.484;2023-02-15T12:49:44;43.28;;;32.28;;
26488;SDS011;14169;43.684;10.484;2023-02-15T12:52:30;42.70;;;32.28;;
26488;SDS011;14169;43.684;10.484;2023-02-15T12:54:56;40.63;;;30.83;;
26488;SDS011;14169;43.684;10.484;2023-02-15T12:57:36;35.90;;;30.17;;
26488;SDS011;14169;43.684;10.484;2023-02-15T13:02:49;35.38;;;29.13;;
26488;SDS011;14169;43.684;10.484;2023-02-15T13:05:21;44.55;;;31.60;;
26488;SDS011;14169;43.684;10.484;2023-02-15T13:08:13;40.35;;;30.08;;
26488;SDS011;14169;43.684;10.484;2023-02-15T13:13:21;33.90;;;28.27;;
26488;SDS011;14169;43.684;10.484;2023-02-15T13:15:52;33.22;;;29.45;;
26488;SDS011;14169;43.684;10.484;2023-02-15T13:18:28;38.05;;;27.95;;
26488;SDS011;14169;43.684;10.484;2023-02-15T13:20:58;37.08;;;27.98;;
26488;SDS011;14169;43.684;10.484;2023-02-15T13:23:31;36.58;;;28.50;;
26488;SDS011;14169;43.684;10.484;2023-02-15T13:25:57;39.50;;;28.23;;
26488;SDS011;14169;43.684;10.484;2023-02-15T13:28:50;33.40;;;29.15;;
26488;SDS011;14169;43.684;10.484;2023-02-15T13:31:23;36.10;;;28.75;;
26488;SDS011;14169;43.684;10.484;2023-02-15T13:39:00;30.73;;;24.60;;
26488;SDS011;14169;43.684;10.484;2023-02-15T13:44:52;30.45;;;25.85;;
26488;SDS011;14169;43.684;10.484;2023-02-15T13:52:51;31.90;;;27.02;;
26488;SDS011;14169;43.684;10.484;2023-02-15T14:11:38;26.80;;;23.90;;
26488;SDS011;14169;43.684;10.484;2023-02-15T14:20:07;15.18;;;13.88;;
26488;SDS011;14169;43.684;10.484;2023-02-15T14:22:46;14.70;;;13.40;;
26488;SDS011;14169;43.684;10.484;2023-02-15T14:26:10;14.38;;;13.27;;
26488;SDS011;14169;43.684;10.484;2023-02-15T14:31:06;14.20;;;12.88;;
26488;SDS011;14169;43.684;10.484;2023-02-15T14:33:52;14.13;;;12.82;;
26488;SDS011;14169;43.684;10.484;2023-02-15T14:36:20;14.20;;;12.88;;
26488;SDS011;14169;43.684;10.484;2023-02-15T14:42:05;13.60;;;12.60;;
26488;SDS011;14169;43.684;10.484;2023-02-15T14:44:55;15.55;;;14.07;;
26488;SDS011;14169;43.684;10.484;2023-02-15T14:47:34;14.48;;;13.18;;
26488;SDS011;14169;43.684;10.484;2023-02-15T15:01:17;16.60;;;15.15;;
26488;SDS011;14169;43.684;10.484;2023-02-15T15:03:58;17.13;;;15.82;;
26488;SDS011;14169;43.684;10.484;2023-02-15T15:06:32;17.30;;;15.55;;
26488;SDS011;14169;43.684;10.484;2023-02-15T15:11:53;19.25;;;16.40;;
26488;SDS011;14169;43.684;10.484;2023-02-15T15:17:02;15.63;;;14.38;;
26488;SDS011;14169;43.684;10.484;2023-02-15T15:20:12;15.43;;;14.23;;
26488;SDS011;14169;43.684;10.484;2023-02-15T15:24:57;17.02;;;15.73;;
26488;SDS011;14169;43.684;10.484;2023-02-15T15:32:38;16.88;;;15.23;;
26488;SDS011;14169;43.684;10.484;2023-02-15T15:43:19;18.17;;;16.67;;
26488;SDS011;14169;43.684;10.484;2023-02-15T15:51:10;19.33;;;17.70;;
26488;SDS011;14169;43.684;10.484;2023-02-15T15:53:43;19.10;;;17.48;;
26488;SDS011;14169;43.684;10.484;2023-02-15T15:56:24;21.30;;;19.10;;
26488;SDS011;14169;43.684;10.484;2023-02-15T15:58:54;21.65;;;19.35;;
26488;SDS011;14169;43.684;10.484;2023-02-15T16:01:24;20.98;;;19.20;;
26488;SDS011;14169;43.684;10.484;2023-02-15T16:03:53;23.40;;;21.02;;
26488;SDS011;14169;43.684;10.484;2023-02-15T16:06:36;24.15;;;21.13;;
26488;SDS011;14169;43.684;10.484;2023-02-15T16:09:20;25.95;;;23.25;;
26488;SDS011;14169;43.684;10.484;2023-02-15T16:11:50;24.20;;;21.70;;
26488;SDS011;14169;43.684;10.484;2023-02-15T16:17:02;24.27;;;21.55;;
26488;SDS011;14169;43.684;10.484;2023-02-15T16:19:32;25.30;;;22.83;;
26488;SDS011;14169;43.684;10.484;2023-02-15T16:22:01;25.10;;;22.63;;
26488;SDS011;14169;43.684;10.484;2023-02-15T16:27:26;24.90;;;22.40;;
26488;SDS011;14169;43.684;10.484;2023-02-15T16:29:53;24.17;;;22.03;;
26488;SDS011;14169;43.684;10.484;2023-02-15T16:32:20;24.70;;;20.80;;
26488;SDS011;14169;43.684;10.484;2023-02-15T16:34:53;25.25;;;22.55;;
26488;SDS011;14169;43.684;10.484;2023-02-15T16:37:23;27.13;;;24.33;;
26488;SDS011;14169;43.684;10.484;2023-02-15T16:39:52;28.80;;;25.63;;
26488;SDS011;14169;43.684;10.484;2023-02-15T16:42:21;32.10;;;27.42;;
26488;SDS011;14169;43.684;10.484;2023-02-15T16:45:05;38.97;;;29.70;;
26488;SDS011;14169;43.684;10.484;2023-02-15T16:47:39;26.92;;;24.23;;
26488;SDS011;14169;43.684;10.484;2023-02-15T16:50:07;29.38;;;25.83;;
26488;SDS011;14169;43.684;10.484;2023-02-15T16:52:46;35.90;;;25.75;;
26488;SDS011;14169;43.684;10.484;2023-02-15T16:55:25;28.98;;;24.38;;
26488;SDS011;14169;43.684;10.484;2023-02-15T16:57:56;36.65;;;25.65;;
26488;SDS011;14169;43.684;10.484;2023-02-15T17:00:26;35.05;;;23.77;;
26488;SDS011;14169;43.684;10.484;2023-02-15T17:03:00;30.92;;;24.35;;
26488;SDS011;14169;43.684;10.484;2023-02-15T17:05:42;40.33;;;29.25;;
26488;SDS011;14169;43.684;10.484;2023-02-15T17:08:13;33.25;;;27.50;;
26488;SDS011;14169;43.684;10.484;2023-02-15T17:10:40;30.63;;;25.45;;
26488;SDS011;14169;43.684;10.484;2023-02-15T17:13:16;28.20;;;22.85;;
26488;SDS011;14169;43.684;10.484;2023-02-15T17:18:23;39.38;;;24.73;;
26488;SDS011;14169;43.684;10.484;2023-02-15T17:20:50;65.45;;;24.70;;
26488;SDS011;14169;43.684;10.484;2023-02-15T17:25:51;54.85;;;25.08;;
26488;SDS011;14169;43.684;10.484;2023-02-15T17:28:19;60.42;;;24.98;;
26488;SDS011;14169;43.684;10.484;2023-02-15T17:30:46;43.55;;;24.13;;
26488;SDS011;14169;43.684;10.484;2023-02-15T17:33:21;51.50;;;23.45;;
26488;SDS011;14169;43.684;10.484;2023-02-15T17:36:09;49.95;;;22.70;;
26488;SDS011;14169;43.684;10.484;2023-02-15T17:38:42;38.75;;;22.38;;
26488;SDS011;14169;43.684;10.484;2023-02-15T17:41:27;46.53;;;21.33;;
26488;SDS011;14169;43.684;10.484;2023-02-15T17:43:54;44.38;;;21.45;;
26488;SDS011;14169;43.684;10.484;2023-02-15T17:46:20;58.35;;;23.08;;
26488;SDS011;14169;43.684;10.484;2023-02-15T17:48:50;72.25;;;23.48;;
26488;SDS011;14169;43.684;10.484;2023-02-15T17:51:17;61.13;;;25.50;;
26488;SDS011;14169;43.684;10.484;2023-02-15T17:53:44;55.92;;;25.20;;
26488;SDS011;14169;43.684;10.484;2023-02-15T17:56:30;64.78;;;28.10;;
26488;SDS011;14169;43.684;10.484;2023-02-15T17:58:56;84.30;;;28.95;;
26488;SDS011;14169;43.684;10.484;2023-02-15T18:01:22;91.25;;;29.95;;
26488;SDS011;14169;43.684;10.484;2023-02-15T18:04:10;76.47;;;29.02;;
26488;SDS011;14169;43.684;10.484;2023-02-15T18:06:56;79.78;;;29.42;;